createdAt,value
2022-08-08T00:00:50.085Z,2.00
2022-08-08T00:02:43.125Z,2.00
2022-08-08T00:05:14.122Z,2.33
2022-08-08T00:08:10.030Z,1.00
2022-08-08T00:10:59.338Z,1.00
2022-08-08T00:14:15.074Z,1.67
2022-08-08T00:16:45.699Z,1.50
2022-08-08T00:19:28.237Z,2.00
2022-08-08T00:22:51.389Z,1.00
2022-08-08T00:25:39.173Z,1.33
2022-08-08T00:28:35.864Z,0.50
2022-08-08T00:32:15.206Z,1.00
2022-08-08T00:34:41.306Z,2.00
2022-08-08T00:38:01.520Z,1.67
2022-08-08T00:41:11.940Z,1.00
2022-08-08T00:43:40.182Z,1.00
2022-08-08T00:46:57.773Z,0.67
2022-08-08T00:49:59.330Z,1.00
2022-08-08T00:52:48.559Z,2.00
2022-08-08T00:55:52.805Z,1.67
2022-08-08T00:58:54.141Z,2.00
2022-08-08T01:02:05.975Z,0.00
2022-08-08T01:05:59.370Z,1.00
2022-08-08T01:08:46.710Z,1.67
2022-08-08T01:11:57.819Z,2.00
2022-08-08T01:14:53.367Z,1.00
2022-08-08T01:17:18.010Z,2.00
2022-08-08T01:20:03.754Z,1.33
2022-08-08T01:22:50.572Z,1.00
2022-08-08T01:25:54.293Z,2.00
2022-08-08T01:29:23.896Z,2.00
2022-08-08T01:32:17.575Z,1.00
2022-08-08T01:34:57.152Z,1.67
2022-08-08T01:37:58.395Z,1.00
2022-08-08T01:41:11.748Z,1.00
2022-08-08T01:44:07.003Z,1.00
2022-08-08T01:48:07.139Z,1.00
2022-08-08T01:50:44.309Z,1.00
2022-08-08T01:55:16.386Z,2.00
2022-08-08T01:56:31.252Z,2.00
2022-08-08T01:59:17.776Z,1.00
2022-08-08T02:02:34.003Z,1.00
2022-08-08T02:05:56.679Z,1.00
2022-08-08T02:08:45.538Z,1.00
2022-08-08T02:11:58.984Z,2.00
2022-08-08T02:14:55.826Z,1.00
2022-08-08T02:17:44.067Z,1.33
2022-08-08T02:21:18.178Z,1.67
2022-08-08T02:23:55.949Z,0.50
2022-08-08T02:26:33.437Z,1.00
2022-08-08T02:29:47.079Z,2.00
2022-08-08T02:32:31.285Z,1.00
2022-08-08T02:35:11.118Z,1.50
2022-08-08T02:38:15.297Z,1.00
2022-08-08T02:41:57.894Z,1.00
2022-08-08T02:44:39.288Z,1.00
2022-08-08T02:47:32.106Z,2.00
2022-08-08T02:50:40.056Z,2.00
2022-08-08T02:53:47.762Z,2.00
2022-08-08T02:56:39.386Z,1.67
2022-08-08T03:00:26.944Z,3.00
2022-08-08T03:05:01.090Z,2.67
2022-08-08T03:06:44.719Z,3.00
2022-08-08T03:10:00.698Z,3.00
2022-08-08T03:13:02.680Z,1.67
2022-08-08T03:16:08.863Z,1.67
2022-08-08T03:18:54.284Z,2.00
2022-08-08T03:21:27.007Z,2.67
2022-08-08T03:24:09.121Z,2.00
2022-08-08T03:26:43.785Z,2.00
2022-08-08T03:29:20.829Z,2.00
2022-08-08T03:32:29.253Z,2.00
2022-08-08T03:34:58.814Z,2.00
2022-08-08T03:38:54.880Z,2.00
2022-08-08T03:40:30.467Z,1.50
2022-08-08T03:43:15.579Z,2.33
2022-08-08T03:46:06.058Z,1.33
2022-08-08T03:49:08.881Z,1.67
2022-08-08T03:51:40.290Z,2.00
2022-08-08T03:54:10.304Z,2.67
2022-08-08T03:56:46.243Z,1.00
2022-08-08T03:59:23.102Z,3.00
2022-08-08T04:02:12.553Z,2.33
2022-08-08T04:04:42.585Z,3.00
2022-08-08T04:07:16.430Z,3.67
2022-08-08T04:10:03.052Z,3.00
2022-08-08T04:12:34.471Z,2.33
2022-08-08T04:15:03.212Z,3.67
2022-08-08T04:17:46.601Z,4.00
2022-08-08T04:20:19.843Z,4.00
2022-08-08T04:22:58.226Z,3.00
2022-08-08T04:25:30.201Z,3.00
2022-08-08T04:28:35.266Z,3.00
2022-08-08T04:30:55.257Z,2.67
2022-08-08T04:33:26.953Z,2.00
2022-08-08T04:35:56.095Z,3.00
2022-08-08T04:38:24.701Z,3.00
2022-08-08T04:40:55.736Z,3.33
2022-08-08T04:43:31.984Z,3.00
2022-08-08T04:46:14.967Z,3.67
2022-08-08T04:48:43.769Z,3.00
2022-08-08T04:51:12.185Z,2.00
2022-08-08T04:54:37.441Z,2.33
2022-08-08T04:56:40.054Z,3.00
2022-08-08T04:59:08.349Z,2.00
2022-08-08T05:01:48.711Z,0.50
2022-08-08T05:04:18.053Z,1.33
2022-08-08T05:06:50.566Z,1.33
2022-08-08T05:09:20.684Z,1.00
2022-08-08T05:11:56.939Z,2.00
2022-08-08T05:14:26.053Z,1.00
2022-08-08T05:17:00.870Z,2.00
2022-08-08T05:20:12.279Z,1.67
2022-08-08T05:22:27.887Z,2.00
2022-08-08T05:24:58.851Z,3.00
2022-08-08T05:27:26.684Z,3.00
2022-08-08T05:30:01.582Z,3.00
2022-08-08T05:32:40.130Z,3.33
2022-08-08T05:35:13.662Z,2.67
2022-08-08T05:37:53.686Z,2.33
2022-08-08T05:40:30.524Z,2.33
2022-08-08T05:43:17.166Z,3.00
2022-08-08T05:46:07.851Z,2.00
2022-08-08T05:48:39.120Z,2.33
2022-08-08T05:51:13.366Z,3.00
2022-08-08T05:54:24.545Z,1.33
2022-08-08T05:56:42.547Z,3.00
2022-08-08T06:00:00.756Z,1.00
2022-08-08T06:02:48.838Z,1.00
2022-08-08T06:05:34.514Z,2.00
2022-08-08T06:08:08.994Z,1.50
2022-08-08T06:10:40.751Z,2.00
2022-08-08T06:13:12.507Z,1.50
2022-08-08T06:15:50.818Z,2.00
2022-08-08T06:18:26.470Z,1.00
2022-08-08T06:20:57.756Z,1.50
2022-08-08T06:23:52.617Z,2.00
2022-08-08T06:26:43.145Z,0.50
2022-08-08T06:29:26.308Z,0.00
2022-08-08T06:32:09.961Z,1.00
2022-08-08T06:34:52.597Z,1.00
2022-08-08T06:37:39.526Z,1.50
2022-08-08T06:40:16.480Z,0.00
2022-08-08T06:43:06.556Z,1.00
2022-08-08T06:45:57.752Z,1.00
2022-08-08T06:48:26.777Z,2.00
2022-08-08T06:50:57.626Z,2.00
2022-08-08T06:53:39.730Z,2.00
2022-08-08T06:56:09.711Z,1.00
2022-08-08T06:58:39.999Z,1.00
2022-08-08T07:02:17.043Z,2.50
2022-08-08T07:04:37.534Z,1.00
2022-08-08T07:07:12.272Z,2.00
2022-08-08T07:10:08.270Z,2.00
2022-08-08T07:12:47.762Z,2.00
2022-08-08T07:16:05.938Z,2.00
2022-08-08T07:18:43.371Z,2.00
2022-08-08T07:21:20.623Z,1.00
2022-08-08T07:24:25.327Z,1.00
2022-08-08T07:27:00.366Z,1.00
2022-08-08T07:29:59.912Z,1.00
2022-08-08T07:32:25.680Z,1.00
2022-08-08T07:35:01.005Z,0.00
2022-08-08T07:37:56.400Z,0.00
2022-08-08T07:40:43.724Z,0.00
2022-08-08T07:43:14.424Z,0.00
2022-08-08T07:45:51.596Z,1.00
2022-08-08T07:48:35.999Z,1.00
2022-08-08T07:51:05.266Z,1.00
2022-08-08T07:54:01.812Z,1.00
2022-08-08T07:56:55.354Z,1.33
2022-08-08T07:59:37.897Z,0.00
2022-08-08T08:02:33.339Z,0.00
2022-08-08T08:05:01.136Z,1.00
2022-08-08T08:07:38.658Z,1.00
2022-08-08T08:10:13.085Z,1.00
2022-08-08T08:12:52.166Z,0.00
2022-08-08T08:15:26.775Z,0.00
2022-08-08T08:18:04.904Z,0.00
2022-08-08T08:20:35.702Z,0.00
2022-08-08T08:23:06.130Z,0.00
2022-08-08T08:25:42.963Z,0.00
2022-08-08T08:28:21.626Z,0.00
2022-08-08T08:30:54.380Z,0.00
2022-08-08T08:33:25.292Z,0.00
2022-08-08T08:36:19.011Z,0.00
2022-08-08T08:38:49.256Z,0.00
2022-08-08T08:41:20.059Z,0.00
2022-08-08T08:43:51.268Z,0.00
2022-08-08T08:46:25.911Z,0.00
2022-08-08T08:48:55.690Z,0.00
2022-08-08T08:51:28.455Z,0.00
2022-08-08T08:54:02.294Z,0.00
2022-08-08T08:56:37.706Z,0.00
2022-08-08T08:59:15.299Z,0.00
2022-08-08T09:01:56.283Z,0.00
2022-08-08T09:04:39.583Z,0.00
2022-08-08T09:07:22.760Z,0.00
2022-08-08T09:09:57.698Z,0.00
2022-08-08T09:12:35.903Z,-0.50
2022-08-08T09:15:06.145Z,1.00
2022-08-08T09:17:41.907Z,0.00
2022-08-08T09:21:58.408Z,0.50
2022-08-08T09:23:17.733Z,0.00
2022-08-08T09:26:02.154Z,0.00
2022-08-08T09:28:39.103Z,0.00
2022-08-08T09:31:42.584Z,0.00
2022-08-08T09:34:30.993Z,0.33
2022-08-08T09:37:57.864Z,1.00
2022-08-08T09:40:11.161Z,1.00
2022-08-08T09:42:54.621Z,1.00
2022-08-08T09:46:00.703Z,1.00
2022-08-08T09:48:35.654Z,0.00
2022-08-08T09:51:05.505Z,1.00
2022-08-08T09:53:56.540Z,0.00
2022-08-08T09:56:41.109Z,1.00
2022-08-08T09:59:39.748Z,0.67
2022-08-08T10:02:12.898Z,-0.50
2022-08-08T10:04:48.002Z,0.00
2022-08-08T10:07:17.350Z,0.00
2022-08-08T10:10:00.729Z,1.00
2022-08-08T10:12:37.963Z,0.67
2022-08-08T10:15:21.963Z,0.00
2022-08-08T10:18:06.206Z,0.67
2022-08-08T10:20:51.037Z,0.50
2022-08-08T10:23:41.585Z,0.00
2022-08-08T10:26:30.094Z,0.00
2022-08-08T10:29:05.811Z,1.67
2022-08-08T10:31:55.242Z,0.00
2022-08-08T10:34:27.510Z,0.00
2022-08-08T10:36:59.863Z,0.33
2022-08-08T10:39:43.674Z,1.00
2022-08-08T10:42:20.872Z,1.00
2022-08-08T10:44:50.340Z,0.00
2022-08-08T10:47:21.031Z,0.50
2022-08-08T10:50:00.795Z,1.50
2022-08-08T10:52:39.085Z,1.50
2022-08-08T10:55:09.242Z,1.00
2022-08-08T10:57:49.689Z,1.00
2022-08-08T11:00:25.505Z,0.00
2022-08-08T11:02:55.273Z,1.00
2022-08-08T11:05:23.999Z,1.00
2022-08-08T11:08:38.427Z,1.67
2022-08-08T11:10:43.091Z,2.00
2022-08-08T11:13:29.054Z,0.50
2022-08-08T11:16:00.766Z,1.00
2022-08-08T11:18:36.703Z,0.00
2022-08-08T11:21:08.959Z,0.50
2022-08-08T11:23:41.517Z,0.00
2022-08-08T11:26:19.413Z,2.00
2022-08-08T11:28:51.059Z,0.33
2022-08-08T11:31:20.961Z,1.00
2022-08-08T11:34:01.944Z,1.50
2022-08-08T11:36:36.515Z,1.00
2022-08-08T11:39:06.167Z,2.00
2022-08-08T11:41:42.263Z,0.33
2022-08-08T11:44:14.939Z,0.67
2022-08-08T11:46:43.877Z,2.00
2022-08-08T11:49:14.643Z,2.00
2022-08-08T11:51:50.736Z,2.00
2022-08-08T11:54:37.936Z,1.67
2022-08-08T11:57:27.526Z,1.33
2022-08-08T12:00:00.976Z,1.50
2022-08-08T12:02:52.112Z,0.33
2022-08-08T12:05:33.579Z,2.00
2022-08-08T12:08:02.300Z,2.00
2022-08-08T12:10:32.536Z,1.00
2022-08-08T12:13:05.116Z,1.00
2022-08-08T12:15:42.281Z,1.67
2022-08-08T12:18:20.610Z,1.00
2022-08-08T12:20:53.188Z,0.00
2022-08-08T12:23:42.696Z,2.00
2022-08-08T12:26:27.987Z,1.33
2022-08-08T12:29:40.816Z,2.00
2022-08-08T12:32:13.615Z,0.00
2022-08-08T12:35:01.354Z,1.00
2022-08-08T12:37:40.591Z,1.67
2022-08-08T12:40:23.783Z,1.67
2022-08-08T12:42:53.351Z,0.50
2022-08-08T12:45:57.732Z,1.00
2022-08-08T12:48:37.243Z,1.00
2022-08-08T12:51:11.218Z,1.33
2022-08-08T12:53:59.285Z,0.00
2022-08-08T12:56:36.045Z,1.00
2022-08-08T12:59:18.686Z,1.67
2022-08-08T13:01:56.732Z,1.67
2022-08-08T13:04:27.202Z,1.00
2022-08-08T13:07:04.529Z,1.33
2022-08-08T13:10:03.285Z,2.00
2022-08-08T13:12:44.413Z,0.00
2022-08-08T13:15:17.197Z,2.00
2022-08-08T13:17:53.915Z,1.33
2022-08-08T13:20:44.996Z,2.00
2022-08-08T13:23:30.622Z,1.67
2022-08-08T13:26:12.623Z,2.00
2022-08-08T13:28:42.387Z,1.00
2022-08-08T13:31:16.155Z,2.00
2022-08-08T13:33:49.828Z,3.00
2022-08-08T13:36:25.904Z,0.33
2022-08-08T13:38:59.245Z,0.00
2022-08-08T13:41:37.560Z,2.00
2022-08-08T13:44:10.801Z,2.00
2022-08-08T13:46:39.757Z,1.50
2022-08-08T13:50:35.789Z,1.00
2022-08-08T13:52:07.691Z,2.33
2022-08-08T13:54:44.000Z,1.00
2022-08-08T13:57:15.012Z,2.00
2022-08-08T13:59:49.142Z,1.33
2022-08-08T14:02:22.359Z,2.00
2022-08-08T14:05:09.166Z,1.00
2022-08-08T14:07:51.850Z,1.33
2022-08-08T14:10:32.659Z,2.00
2022-08-08T14:13:31.077Z,1.00
2022-08-08T14:16:03.465Z,2.00
2022-08-08T14:18:36.815Z,1.33
2022-08-08T14:21:20.775Z,1.00
2022-08-08T14:24:08.134Z,1.00
2022-08-08T14:26:42.460Z,1.67
2022-08-08T14:29:26.855Z,1.00
2022-08-08T14:32:10.033Z,0.00
2022-08-08T14:34:50.311Z,2.00
2022-08-08T14:37:20.582Z,0.00
2022-08-08T14:40:06.679Z,0.50
2022-08-08T14:42:55.177Z,1.33
2022-08-08T14:45:33.776Z,1.67
2022-08-08T14:48:16.217Z,2.00
2022-08-08T14:50:47.133Z,2.00
2022-08-08T14:53:15.860Z,2.00
2022-08-08T14:55:43.895Z,0.33
2022-08-08T14:58:16.502Z,1.00
2022-08-08T15:00:48.996Z,1.00
2022-08-08T15:03:18.648Z,1.67
2022-08-08T15:05:53.633Z,0.67
2022-08-08T15:08:34.653Z,2.00
2022-08-08T15:11:11.395Z,2.00
2022-08-08T15:14:00.416Z,1.00
2022-08-08T15:16:29.099Z,0.33
2022-08-08T15:18:56.974Z,2.00
2022-08-08T15:21:27.796Z,2.00
2022-08-08T15:23:58.869Z,2.67
2022-08-08T15:26:29.308Z,1.00
2022-08-08T15:28:57.824Z,1.00
2022-08-08T15:32:18.125Z,1.33
2022-08-08T15:34:18.755Z,1.67
2022-08-08T15:37:03.136Z,2.00
2022-08-08T15:39:38.081Z,1.00
2022-08-08T15:42:13.368Z,1.00
2022-08-08T15:44:46.083Z,1.00
2022-08-08T15:47:15.836Z,1.00
2022-08-08T15:49:48.543Z,1.00
2022-08-08T15:52:20.821Z,1.00
2022-08-08T15:54:51.609Z,2.00
2022-08-08T15:57:21.972Z,1.00
2022-08-08T16:00:05.597Z,2.00
2022-08-08T16:02:44.500Z,1.00
2022-08-08T16:05:23.737Z,2.00
2022-08-08T16:07:54.012Z,1.50
2022-08-08T16:13:14.685Z,1.00
2022-08-08T16:13:32.192Z,2.00
2022-08-08T16:16:16.472Z,2.00
2022-08-08T16:18:53.122Z,2.33
2022-08-08T16:21:29.152Z,3.00
2022-08-08T16:24:03.357Z,1.33
2022-08-08T16:26:36.912Z,2.00
2022-08-08T16:29:09.009Z,3.00
2022-08-08T16:31:42.126Z,2.00
2022-08-08T16:34:21.574Z,1.00
2022-08-08T16:36:50.351Z,1.67
2022-08-08T16:39:49.042Z,1.00
2022-08-08T16:42:17.930Z,2.00
2022-08-08T16:44:54.700Z,1.50
2022-08-08T16:47:39.911Z,2.00
2022-08-08T16:50:16.725Z,2.00
2022-08-08T16:55:02.364Z,1.67
2022-08-08T16:55:55.794Z,1.33
2022-08-08T16:58:32.444Z,2.00
2022-08-08T17:01:05.555Z,2.00
2022-08-08T17:03:58.694Z,2.00
2022-08-08T17:06:37.305Z,1.33
2022-08-08T17:09:15.598Z,1.00
2022-08-08T17:11:49.273Z,1.67
2022-08-08T17:14:27.086Z,1.00
2022-08-08T17:16:58.206Z,2.00
2022-08-08T17:19:30.463Z,2.00
2022-08-08T17:22:06.248Z,2.00
2022-08-08T17:24:35.232Z,3.00
2022-08-08T17:27:05.002Z,2.00
2022-08-08T17:29:36.488Z,2.00
2022-08-08T17:32:11.762Z,3.00
2022-08-08T17:34:54.183Z,2.00
2022-08-08T17:37:27.804Z,1.67
2022-08-08T17:40:12.448Z,1.67
2022-08-08T17:42:47.298Z,2.00
2022-08-08T17:45:22.855Z,1.67
2022-08-08T17:47:54.171Z,1.00
2022-08-08T17:50:23.743Z,3.00
2022-08-08T17:52:53.160Z,1.00
2022-08-08T17:56:05.973Z,3.00
2022-08-08T17:58:09.081Z,2.00
2022-08-08T18:00:41.191Z,2.33
2022-08-08T18:03:13.815Z,1.33
2022-08-08T18:05:47.875Z,0.33
2022-08-08T18:08:25.060Z,2.00
2022-08-08T18:11:17.194Z,2.00
2022-08-08T18:13:47.083Z,0.67
2022-08-08T18:16:20.174Z,2.00
2022-08-08T18:18:53.221Z,2.00
2022-08-08T18:21:35.144Z,1.67
2022-08-08T18:24:19.582Z,1.33
2022-08-08T18:26:54.346Z,2.00
2022-08-08T18:29:33.227Z,1.33
2022-08-08T18:32:06.594Z,2.00
2022-08-08T18:34:36.164Z,2.00
2022-08-08T18:37:06.482Z,1.67
2022-08-08T18:39:42.156Z,0.67
2022-08-08T18:42:16.164Z,1.00
2022-08-08T18:44:52.722Z,2.00
2022-08-08T18:47:25.865Z,2.00
2022-08-08T18:49:58.339Z,1.00
2022-08-08T18:52:29.853Z,2.00
2022-08-08T18:55:09.826Z,2.00
2022-08-08T18:57:44.742Z,1.33
2022-08-08T19:00:20.511Z,2.00
2022-08-08T19:02:56.489Z,1.00
2022-08-08T19:05:31.914Z,1.00
2022-08-08T19:08:29.693Z,1.67
2022-08-08T19:10:59.706Z,1.00
2022-08-08T19:13:47.304Z,1.67
2022-08-08T19:16:20.187Z,2.00
2022-08-08T19:19:00.386Z,0.00
2022-08-08T19:21:33.853Z,0.67
2022-08-08T19:24:42.174Z,2.00
2022-08-08T19:27:07.325Z,1.67
2022-08-08T19:29:42.214Z,0.00
2022-08-08T19:32:13.228Z,1.00
2022-08-08T19:34:51.333Z,1.67
2022-08-08T19:37:42.283Z,1.00
2022-08-08T19:40:16.270Z,3.00
2022-08-08T19:42:45.995Z,3.00
2022-08-08T19:45:58.506Z,1.00
2022-08-08T19:48:28.105Z,1.67
2022-08-08T19:50:55.649Z,1.00
2022-08-08T19:53:52.076Z,1.33
2022-08-08T19:56:12.893Z,2.00
2022-08-08T19:58:41.870Z,1.00
2022-08-08T20:01:18.978Z,1.00
2022-08-08T20:04:00.298Z,0.33
2022-08-08T20:06:31.268Z,1.67
2022-08-08T20:08:59.752Z,2.00
2022-08-08T20:11:32.430Z,2.33
2022-08-08T20:14:32.728Z,1.67
2022-08-08T20:16:48.076Z,1.67
2022-08-08T20:19:20.978Z,2.00
2022-08-08T20:21:48.949Z,2.00
2022-08-08T20:24:18.957Z,3.33
2022-08-08T20:26:49.435Z,3.00
2022-08-08T20:29:18.206Z,3.00
2022-08-08T20:32:02.504Z,2.67
2022-08-08T20:34:35.200Z,2.00
2022-08-08T20:37:04.715Z,3.33
2022-08-08T20:39:41.397Z,3.00
2022-08-08T20:42:28.296Z,3.00
2022-08-08T20:44:58.838Z,2.33
2022-08-08T20:47:26.859Z,3.00
2022-08-08T20:50:05.677Z,4.00
2022-08-08T20:52:33.626Z,4.00
2022-08-08T20:55:01.643Z,3.00
2022-08-08T20:57:35.683Z,5.33
2022-08-08T21:00:12.640Z,4.33
2022-08-08T21:02:40.557Z,5.00
2022-08-08T21:05:12.119Z,3.00
2022-08-08T21:07:47.607Z,3.50
2022-08-08T21:10:29.462Z,4.00
2022-08-08T21:12:57.840Z,2.00
2022-08-08T21:16:05.402Z,4.67
2022-08-08T21:18:13.850Z,2.33
2022-08-08T21:20:42.388Z,2.00
2022-08-08T21:23:13.052Z,3.50
2022-08-08T21:25:43.711Z,3.00
2022-08-08T21:28:16.372Z,3.00
2022-08-08T21:30:49.655Z,3.00
2022-08-08T21:33:20.730Z,2.50
2022-08-08T21:36:14.350Z,3.67
2022-08-08T21:38:36.886Z,2.00
2022-08-08T21:41:05.150Z,2.00
2022-08-08T21:43:34.938Z,3.50
2022-08-08T21:48:04.938Z,3.00
2022-08-08T21:48:54.956Z,4.33
2022-08-08T21:54:17.622Z,3.00
2022-08-08T21:54:50.558Z,3.00
2022-08-08T21:57:06.156Z,3.00
2022-08-08T22:00:02.753Z,4.00
2022-08-08T22:02:23.433Z,3.00
2022-08-08T22:04:59.259Z,2.67
2022-08-08T22:07:39.845Z,2.67
2022-08-08T22:10:28.838Z,2.67
2022-08-08T22:13:17.705Z,2.00
2022-08-08T22:15:58.624Z,2.00
2022-08-08T22:18:30.654Z,4.00
2022-08-08T22:21:14.371Z,2.33
2022-08-08T22:23:50.507Z,2.67
2022-08-08T22:26:29.011Z,2.67
2022-08-08T22:29:04.668Z,3.00
2022-08-08T22:31:43.990Z,2.00
2022-08-08T22:34:39.389Z,1.33
2022-08-08T22:37:14.897Z,3.00
2022-08-08T22:40:00.740Z,4.00
2022-08-08T22:42:31.877Z,2.67
2022-08-08T22:45:12.532Z,3.00
2022-08-08T22:47:48.695Z,2.00
2022-08-08T22:50:26.132Z,2.00
2022-08-08T22:54:30.321Z,2.00
2022-08-08T22:55:59.351Z,2.00
2022-08-08T22:58:33.134Z,1.00
2022-08-08T23:02:01.707Z,4.00
2022-08-08T23:03:54.677Z,3.00
2022-08-08T23:06:27.179Z,4.00
2022-08-08T23:08:58.748Z,4.00
2022-08-08T23:12:18.133Z,3.00
2022-08-08T23:14:20.637Z,5.00
2022-08-08T23:16:54.446Z,2.00
2022-08-08T23:19:30.758Z,3.00
2022-08-08T23:22:04.791Z,3.00
2022-08-08T23:24:41.348Z,3.00
2022-08-08T23:27:37.489Z,3.00
2022-08-08T23:29:59.623Z,2.67
2022-08-08T23:32:27.424Z,2.00
2022-08-08T23:34:58.752Z,4.00
2022-08-08T23:38:02.387Z,4.00
2022-08-08T23:40:16.917Z,3.67
2022-08-08T23:42:50.182Z,4.00
2022-08-08T23:49:00.081Z,4.00
2022-08-08T23:49:04.027Z,3.33
2022-08-08T23:50:57.260Z,3.00
2022-08-08T23:53:55.683Z,5.00
2022-08-08T23:56:13.211Z,5.00
2022-08-08T23:58:51.813Z,6.67
